createdAt,value
2018-05-09T00:00:36.313Z,4.57
2018-05-09T00:03:03.941Z,4.57
2018-05-09T00:05:32.387Z,4.23
2018-05-09T00:08:00.057Z,4.13
2018-05-09T00:10:27.711Z,5.10
2018-05-09T00:12:55.324Z,4.40
2018-05-09T00:15:23.549Z,4.53
2018-05-09T00:17:51.182Z,4.90
2018-05-09T00:23:15.065Z,4.37
2018-05-09T00:25:43.461Z,4.60
2018-05-09T00:28:11.287Z,4.60
2018-05-09T00:30:38.907Z,4.97
2018-05-09T00:33:06.582Z,4.80
2018-05-09T00:35:34.207Z,4.70
2018-05-09T00:38:01.865Z,4.43
2018-05-09T00:40:29.531Z,4.70
2018-05-09T00:42:57.158Z,4.77
2018-05-09T00:45:24.889Z,4.70
2018-05-09T00:47:52.506Z,5.10
2018-05-09T00:50:20.189Z,5.13
2018-05-09T00:52:48.573Z,5.10
2018-05-09T00:55:17.123Z,5.10
2018-05-09T00:57:44.973Z,5.20
2018-05-09T01:00:13.405Z,4.63
2018-05-09T01:02:41.059Z,5.07
2018-05-09T01:05:09.447Z,4.70
2018-05-09T01:07:37.081Z,4.53
2018-05-09T01:10:04.740Z,5.20
2018-05-09T01:12:32.422Z,5.20
2018-05-09T01:15:00.975Z,4.60
2018-05-09T01:17:28.621Z,4.80
2018-05-09T01:19:56.422Z,4.63
2018-05-09T01:22:24.826Z,4.87
2018-05-09T01:24:52.461Z,5.03
2018-05-09T01:27:20.121Z,5.07
2018-05-09T01:29:48.549Z,4.60
2018-05-09T01:32:16.177Z,4.93
2018-05-09T01:34:43.822Z,5.17
2018-05-09T01:40:09.773Z,5.10
2018-05-09T01:42:37.414Z,5.40
2018-05-09T01:45:05.101Z,5.17
2018-05-09T01:47:32.762Z,5.33
2018-05-09T01:50:01.167Z,5.10
2018-05-09T01:52:29.754Z,5.23
2018-05-09T01:54:57.510Z,5.33
2018-05-09T01:57:25.853Z,5.83
2018-05-09T01:59:53.487Z,5.43
2018-05-09T02:02:22.237Z,5.70
2018-05-09T02:04:49.899Z,5.67
2018-05-09T02:07:17.558Z,5.70
2018-05-09T02:09:45.209Z,5.60
2018-05-09T02:12:12.838Z,4.50
2018-05-09T02:14:40.509Z,5.50
2018-05-09T02:17:08.903Z,5.73
2018-05-09T02:19:38.229Z,5.37
2018-05-09T02:22:06.683Z,5.43
2018-05-09T02:24:34.301Z,5.40
2018-05-09T02:27:01.961Z,5.37
2018-05-09T02:29:29.778Z,5.90
2018-05-09T02:31:57.719Z,6.30
2018-05-09T02:34:25.363Z,6.00
2018-05-09T02:36:53.030Z,6.17
2018-05-09T02:39:20.674Z,6.10
2018-05-09T02:41:48.343Z,6.40
2018-05-09T02:44:16.143Z,6.60
2018-05-09T02:46:43.938Z,6.50
2018-05-09T02:49:11.662Z,6.80
2018-05-09T02:51:39.306Z,6.07
2018-05-09T02:54:06.955Z,6.37
2018-05-09T02:56:35.394Z,7.00
2018-05-09T02:59:03.000Z,6.07
2018-05-09T03:01:30.688Z,6.43
2018-05-09T03:12:50.190Z,6.67
2018-05-09T03:15:18.041Z,5.77
2018-05-09T03:17:46.178Z,6.30
2018-05-09T03:20:14.601Z,5.83
2018-05-09T03:22:42.244Z,6.03
2018-05-09T03:25:09.979Z,6.30
2018-05-09T03:27:37.638Z,6.20
2018-05-09T03:30:05.399Z,6.90
2018-05-09T03:32:33.053Z,6.57
2018-05-09T03:35:00.680Z,6.80
2018-05-09T03:37:28.350Z,6.90
2018-05-09T03:39:56.013Z,7.07
2018-05-09T03:42:23.642Z,7.13
2018-05-09T03:44:51.298Z,7.13
2018-05-09T03:47:20.503Z,6.67
2018-05-09T03:49:48.935Z,6.83
2018-05-09T03:52:16.617Z,6.67
2018-05-09T03:54:45.954Z,6.70
2018-05-09T03:57:14.375Z,6.53
2018-05-09T03:59:42.008Z,6.13
2018-05-09T04:02:21.564Z,6.40
2018-05-09T04:05:01.109Z,6.63
2018-05-09T04:07:40.770Z,6.00
2018-05-09T04:10:08.402Z,6.07
2018-05-09T04:12:36.065Z,6.57
2018-05-09T04:15:03.720Z,6.37
2018-05-09T04:17:31.433Z,6.47
2018-05-09T04:19:59.239Z,6.27
2018-05-09T04:22:26.874Z,5.83
2018-05-09T04:24:54.516Z,6.27
2018-05-09T04:27:22.125Z,6.60
2018-05-09T04:29:50.468Z,6.90
2018-05-09T04:32:18.861Z,6.90
2018-05-09T04:34:47.297Z,6.43
2018-05-09T04:37:14.917Z,6.40
2018-05-09T04:39:42.587Z,6.40
2018-05-09T04:42:11.302Z,6.20
2018-05-09T04:44:39.697Z,6.90
2018-05-09T04:47:07.356Z,6.83
2018-05-09T04:49:34.953Z,6.30
2018-05-09T04:52:02.628Z,7.23
2018-05-09T04:54:30.569Z,6.63
2018-05-09T04:56:58.917Z,6.93
2018-05-09T04:59:27.741Z,6.60
2018-05-09T05:01:55.382Z,7.00
2018-05-09T05:04:23.062Z,6.53
2018-05-09T05:06:50.718Z,7.07
2018-05-09T05:09:18.370Z,6.20
2018-05-09T05:11:46.785Z,6.73
2018-05-09T05:14:15.404Z,6.50
2018-05-09T05:16:43.057Z,6.20
2018-05-09T05:19:10.698Z,7.20
2018-05-09T05:21:38.336Z,6.43
2018-05-09T05:24:06.022Z,6.63
2018-05-09T05:26:33.638Z,6.70
2018-05-09T05:29:01.326Z,7.33
2018-05-09T05:31:29.004Z,7.57
2018-05-09T05:33:57.401Z,7.67
2018-05-09T05:36:26.107Z,8.30
2018-05-09T05:38:54.614Z,8.50
2018-05-09T05:41:22.258Z,8.53
2018-05-09T05:43:49.915Z,8.27
2018-05-09T05:46:17.546Z,8.97
2018-05-09T05:48:45.502Z,8.60
2018-05-09T05:51:13.960Z,8.80
2018-05-09T05:53:41.639Z,8.83
2018-05-09T05:56:09.332Z,8.17
2018-05-09T05:58:36.958Z,8.07
2018-05-09T06:01:04.647Z,7.73
2018-05-09T06:03:32.306Z,7.23
2018-05-09T06:06:00.760Z,7.23
2018-05-09T06:08:28.437Z,7.13
2018-05-09T06:10:56.064Z,7.37
2018-05-09T06:13:23.701Z,6.40
2018-05-09T06:15:51.326Z,7.03
2018-05-09T06:18:19.050Z,6.60
2018-05-09T06:20:46.703Z,6.57
2018-05-09T06:23:14.346Z,6.87
2018-05-09T06:25:42.775Z,6.07
2018-05-09T06:28:10.387Z,6.03
2018-05-09T06:30:38.014Z,6.80
2018-05-09T06:33:06.426Z,6.43
2018-05-09T06:35:34.840Z,7.70
2018-05-09T06:38:02.472Z,6.53
2018-05-09T06:40:30.132Z,6.70
2018-05-09T06:42:57.763Z,6.33
2018-05-09T06:45:25.370Z,6.57
2018-05-09T06:47:53.007Z,6.67
2018-05-09T06:50:20.658Z,6.33
2018-05-09T06:52:49.047Z,5.77
2018-05-09T06:55:17.469Z,6.60
2018-05-09T06:57:45.099Z,6.80
2018-05-09T07:00:12.749Z,6.73
2018-05-09T07:02:40.402Z,6.03
2018-05-09T07:05:08.015Z,7.00
2018-05-09T07:07:35.985Z,7.50
2018-05-09T07:10:04.393Z,7.20
2018-05-09T07:12:32.872Z,7.17
2018-05-09T07:15:00.496Z,7.10
2018-05-09T07:17:28.131Z,7.03
2018-05-09T07:19:55.833Z,6.93
2018-05-09T07:22:24.359Z,6.73
2018-05-09T07:24:52.041Z,7.50
2018-05-09T07:27:19.726Z,7.27
2018-05-09T07:29:47.362Z,7.03
2018-05-09T07:32:15.787Z,6.37
2018-05-09T07:34:43.453Z,7.00
2018-05-09T07:37:11.902Z,6.50
2018-05-09T07:39:39.603Z,6.73
2018-05-09T07:42:07.338Z,6.97
2018-05-09T07:44:34.918Z,6.43
2018-05-09T07:47:03.309Z,6.30
2018-05-09T07:49:30.947Z,6.00
2018-05-09T07:51:58.602Z,6.73
2018-05-09T07:54:28.081Z,6.53
2018-05-09T07:56:56.498Z,6.43
2018-05-09T07:59:24.122Z,6.50
2018-05-09T08:01:52.550Z,6.30
2018-05-09T08:04:20.205Z,6.40
2018-05-09T08:06:47.800Z,6.53
2018-05-09T08:09:16.231Z,6.67
2018-05-09T08:11:43.872Z,7.03
2018-05-09T08:14:11.528Z,6.87
2018-05-09T08:16:39.285Z,6.47
2018-05-09T08:19:06.925Z,5.90
2018-05-09T08:21:34.587Z,6.27
2018-05-09T08:24:02.201Z,6.80
2018-05-09T08:26:29.859Z,6.77
2018-05-09T08:28:57.526Z,6.60
2018-05-09T08:31:25.166Z,7.23
2018-05-09T08:33:52.824Z,6.83
2018-05-09T08:36:20.515Z,6.47
2018-05-09T08:38:48.174Z,7.00
2018-05-09T08:41:16.606Z,6.70
2018-05-09T08:43:44.319Z,6.07
2018-05-09T08:46:12.687Z,6.50
2018-05-09T08:48:40.344Z,5.43
2018-05-09T08:51:08.780Z,4.73
2018-05-09T08:53:36.429Z,6.00
2018-05-09T08:56:04.057Z,5.70
2018-05-09T08:58:31.714Z,5.63
2018-05-09T09:01:00.097Z,5.57
2018-05-09T09:03:27.727Z,5.10
2018-05-09T09:05:55.385Z,4.43
2018-05-09T09:08:23.781Z,5.40
2018-05-09T09:10:51.578Z,5.53
2018-05-09T09:13:19.874Z,5.00
2018-05-09T09:15:47.535Z,5.53
2018-05-09T09:18:15.194Z,5.47
2018-05-09T09:20:42.866Z,5.20
2018-05-09T09:23:10.497Z,5.53
2018-05-09T09:25:38.103Z,5.13
2018-05-09T09:28:05.777Z,4.57
2018-05-09T09:30:33.430Z,5.03
2018-05-09T09:33:01.067Z,4.90
2018-05-09T09:35:28.756Z,5.30
2018-05-09T09:37:56.371Z,4.60
2018-05-09T09:40:24.015Z,5.23
2018-05-09T09:42:51.650Z,5.57
2018-05-09T09:45:20.097Z,4.97
2018-05-09T09:47:47.773Z,4.70
2018-05-09T09:50:15.402Z,5.30
2018-05-09T09:52:43.350Z,5.33
2018-05-09T09:55:10.980Z,4.97
2018-05-09T09:57:38.646Z,4.80
2018-05-09T10:00:06.325Z,4.83
2018-05-09T10:02:33.957Z,4.83
2018-05-09T10:05:01.614Z,5.33
2018-05-09T10:07:29.245Z,5.63
2018-05-09T10:09:57.663Z,4.80
2018-05-09T10:12:26.122Z,5.23
2018-05-09T10:14:53.750Z,4.90
2018-05-09T10:17:22.162Z,4.67
2018-05-09T10:19:49.796Z,4.50
2018-05-09T10:22:17.461Z,5.67
2018-05-09T10:24:45.122Z,5.13
2018-05-09T10:27:12.766Z,4.83
2018-05-09T10:29:40.409Z,4.50
2018-05-09T10:32:08.072Z,4.53
2018-05-09T10:34:36.502Z,4.80
2018-05-09T10:37:04.187Z,4.60
2018-05-09T10:39:31.801Z,4.87
2018-05-09T10:42:00.198Z,4.87
2018-05-09T10:44:27.828Z,4.30
2018-05-09T10:46:55.495Z,4.13
2018-05-09T10:49:24.405Z,4.50
2018-05-09T10:51:52.029Z,4.43
2018-05-09T10:54:19.777Z,4.33
2018-05-09T10:56:47.409Z,3.77
2018-05-09T10:59:15.824Z,4.33
2018-05-09T11:01:45.098Z,4.50
2018-05-09T11:04:12.733Z,4.33
2018-05-09T11:06:41.168Z,4.13
2018-05-09T11:09:08.789Z,4.33
2018-05-09T11:11:36.448Z,4.27
2018-05-09T11:14:04.053Z,4.20
2018-05-09T11:16:31.620Z,4.10
2018-05-09T11:18:59.225Z,3.83
2018-05-09T11:21:26.797Z,3.63
2018-05-09T11:23:54.388Z,4.00
2018-05-09T11:26:21.997Z,3.97
2018-05-09T11:28:49.572Z,3.83
2018-05-09T11:31:17.170Z,3.90
2018-05-09T11:33:44.750Z,4.67
2018-05-09T11:36:12.435Z,3.90
2018-05-09T11:38:39.980Z,4.00
2018-05-09T11:41:07.548Z,3.70
2018-05-09T11:43:35.997Z,3.83
2018-05-09T11:46:03.581Z,3.87
2018-05-09T11:48:31.184Z,3.63
2018-05-09T11:50:58.797Z,3.60
2018-05-09T11:53:26.373Z,3.30
2018-05-09T11:55:54.738Z,3.67
2018-05-09T11:58:22.325Z,3.53
2018-05-09T12:00:49.932Z,3.40
2018-05-09T12:03:18.346Z,3.40
2018-05-09T12:05:46.726Z,3.27
2018-05-09T12:08:14.377Z,3.33
2018-05-09T12:10:42.113Z,3.03
2018-05-09T12:13:09.730Z,3.40
2018-05-09T12:15:37.442Z,3.33
2018-05-09T12:18:05.099Z,3.17
2018-05-09T12:20:32.777Z,3.10
2018-05-09T12:23:01.197Z,3.40
2018-05-09T12:25:28.862Z,3.07
2018-05-09T12:27:56.522Z,3.60
2018-05-09T12:30:24.149Z,3.13
2018-05-09T12:32:51.839Z,3.30
2018-05-09T12:35:19.468Z,2.80
2018-05-09T12:37:47.134Z,3.00
2018-05-09T12:40:14.790Z,3.17
2018-05-09T12:42:43.194Z,2.93
2018-05-09T12:45:11.619Z,3.00
2018-05-09T12:47:39.250Z,2.90
2018-05-09T12:50:07.680Z,2.93
2018-05-09T12:52:36.110Z,3.13
2018-05-09T12:55:03.759Z,3.47
2018-05-09T12:57:31.407Z,3.00
2018-05-09T12:59:59.013Z,3.07
2018-05-09T13:02:26.687Z,2.87
2018-05-09T13:04:54.358Z,3.70
2018-05-09T13:07:22.072Z,3.30
2018-05-09T13:09:50.437Z,3.10
2018-05-09T13:12:18.059Z,3.20
2018-05-09T13:14:45.741Z,2.90
2018-05-09T13:17:13.362Z,3.03
2018-05-09T13:19:41.104Z,2.90
2018-05-09T13:22:08.687Z,2.93
2018-05-09T13:24:36.362Z,3.10
2018-05-09T13:27:04.071Z,3.03
2018-05-09T13:29:31.718Z,3.00
2018-05-09T13:32:00.124Z,3.00
2018-05-09T13:34:28.530Z,3.00
2018-05-09T13:36:56.969Z,3.27
2018-05-09T13:39:24.610Z,2.53
2018-05-09T13:41:52.330Z,3.00
2018-05-09T13:44:20.607Z,3.20
2018-05-09T13:46:48.293Z,3.23
2018-05-09T13:49:16.053Z,3.20
2018-05-09T13:51:44.454Z,3.00
2018-05-09T13:54:12.278Z,2.70
2018-05-09T13:56:40.093Z,3.00
2018-05-09T13:59:07.766Z,2.90
2018-05-09T14:01:36.163Z,2.83
2018-05-09T14:04:03.822Z,3.03
2018-05-09T14:06:31.509Z,3.07
2018-05-09T14:08:59.175Z,2.90
2018-05-09T14:17:34.928Z,3.17
2018-05-09T14:20:02.571Z,3.10
2018-05-09T14:22:30.214Z,2.93
2018-05-09T14:24:58.643Z,3.20
2018-05-09T14:27:27.141Z,3.00
2018-05-09T14:30:14.257Z,3.00
2018-05-09T14:32:41.934Z,2.83
2018-05-09T14:35:09.574Z,3.10
2018-05-09T14:37:37.194Z,2.97
2018-05-09T14:40:05.514Z,3.10
2018-05-09T14:42:33.186Z,3.20
2018-05-09T14:45:00.833Z,3.20
2018-05-09T14:47:28.506Z,2.77
2018-05-09T14:49:56.159Z,3.20
2018-05-09T14:52:24.927Z,2.97
2018-05-09T14:54:52.559Z,3.30
2018-05-09T14:57:20.226Z,3.03
2018-05-09T15:05:35.909Z,3.10
2018-05-09T15:08:03.581Z,3.30
2018-05-09T15:10:32.023Z,2.97
2018-05-09T15:13:00.519Z,2.73
2018-05-09T15:15:29.586Z,3.00
2018-05-09T15:17:57.513Z,3.00
2018-05-09T15:20:25.160Z,2.70
2018-05-09T15:22:52.915Z,2.60
2018-05-09T15:25:20.686Z,2.60
2018-05-09T15:27:48.371Z,3.00
2018-05-09T15:30:16.754Z,2.83
2018-05-09T15:32:44.442Z,2.83
2018-05-09T15:35:12.079Z,3.20
2018-05-09T15:37:39.723Z,3.20
2018-05-09T15:40:07.342Z,3.13
2018-05-09T15:42:35.730Z,2.93
2018-05-09T15:45:03.357Z,2.90
2018-05-09T15:47:30.993Z,3.00
2018-05-09T15:49:58.598Z,3.20
2018-05-09T15:52:27.005Z,2.67
2018-05-09T15:54:55.410Z,3.00
2018-05-09T15:57:23.797Z,3.27
2018-05-09T15:59:51.438Z,3.00
2018-05-09T16:02:19.056Z,3.17
2018-05-09T16:04:46.694Z,3.27
2018-05-09T16:07:14.329Z,3.63
2018-05-09T16:09:42.004Z,3.20
2018-05-09T16:12:09.642Z,3.40
2018-05-09T16:14:38.045Z,3.40
2018-05-09T16:17:06.475Z,3.37
2018-05-09T16:19:34.093Z,3.33
2018-05-09T16:22:01.816Z,3.23
2018-05-09T16:24:29.400Z,3.20
2018-05-09T16:26:57.077Z,3.60
2018-05-09T16:29:24.707Z,3.30
2018-05-09T16:31:52.406Z,3.30
2018-05-09T16:34:20.061Z,3.27
2018-05-09T16:36:48.466Z,3.30
2018-05-09T16:39:17.710Z,3.30
2018-05-09T16:41:45.401Z,3.63
2018-05-09T16:44:13.075Z,3.17
2018-05-09T16:46:41.694Z,3.37
2018-05-09T16:49:09.404Z,3.30
2018-05-09T16:51:37.174Z,3.27
2018-05-09T16:54:04.820Z,3.03
2018-05-09T16:56:32.453Z,3.07
2018-05-09T16:59:00.158Z,3.23
2018-05-09T17:01:27.905Z,3.07
2018-05-09T17:03:55.726Z,2.87
2018-05-09T17:06:23.366Z,3.10
2018-05-09T17:08:51.490Z,3.10
2018-05-09T17:11:20.019Z,2.83
2018-05-09T17:13:47.767Z,2.77
2018-05-09T17:16:16.302Z,2.80
2018-05-09T17:18:45.257Z,3.10
2018-05-09T17:21:24.959Z,3.17
2018-05-09T17:23:53.105Z,3.23
2018-05-09T17:26:20.754Z,3.20
2018-05-09T17:28:48.399Z,3.70
2018-05-09T17:31:16.053Z,3.17
2018-05-09T17:33:44.466Z,3.23
2018-05-09T17:36:12.141Z,3.20
2018-05-09T17:38:39.882Z,3.30
2018-05-09T17:41:08.662Z,3.10
2018-05-09T17:43:36.283Z,3.30
2018-05-09T17:48:56.489Z,3.00
2018-05-09T17:51:25.006Z,3.40
2018-05-09T17:53:53.428Z,3.20
2018-05-09T17:56:21.050Z,2.83
2018-05-09T17:58:48.755Z,3.30
2018-05-09T18:01:16.381Z,3.20
2018-05-09T18:03:45.253Z,3.00
2018-05-09T18:06:12.883Z,3.87
2018-05-09T18:08:41.302Z,3.17
2018-05-09T18:11:24.095Z,3.17
2018-05-09T18:13:51.737Z,3.37
2018-05-09T18:16:19.446Z,3.10
2018-05-09T18:18:47.725Z,3.30
2018-05-09T18:21:15.378Z,3.17
2018-05-09T18:23:43.024Z,3.27
2018-05-09T18:26:11.472Z,3.13
2018-05-09T18:28:39.109Z,3.33
2018-05-09T18:31:06.748Z,3.13
2018-05-09T18:33:34.370Z,2.80
2018-05-09T18:36:02.034Z,3.30
2018-05-09T18:38:29.697Z,2.80
2018-05-09T18:40:57.341Z,3.07
2018-05-09T18:43:36.242Z,2.97
2018-05-09T18:46:04.686Z,3.20
2018-05-09T18:48:32.401Z,3.20
2018-05-09T18:51:00.006Z,3.10
2018-05-09T18:53:27.680Z,3.00
2018-05-09T18:55:55.321Z,3.20
2018-05-09T18:58:22.955Z,3.33
2018-05-09T19:00:51.527Z,3.03
2018-05-09T19:03:19.221Z,2.70
2018-05-09T19:05:47.751Z,2.73
2018-05-09T19:08:16.230Z,2.97
2018-05-09T19:10:44.281Z,3.13
2018-05-09T19:13:12.099Z,2.80
2018-05-09T19:15:39.898Z,3.13
2018-05-09T19:18:08.357Z,2.67
2018-05-09T19:20:36.905Z,2.83
2018-05-09T19:23:04.700Z,3.20
2018-05-09T19:25:32.511Z,3.13
2018-05-09T19:28:00.336Z,3.63
2018-05-09T19:30:27.949Z,3.83
2018-05-09T19:32:55.593Z,3.40
2018-05-09T19:35:23.193Z,3.10
2018-05-09T19:37:50.853Z,3.37
2018-05-09T19:40:18.486Z,2.93
2018-05-09T19:42:46.146Z,2.93
2018-05-09T19:45:14.578Z,3.13
2018-05-09T19:47:42.265Z,3.20
2018-05-09T19:50:11.090Z,3.00
2018-05-09T19:52:39.486Z,2.80
2018-05-09T19:55:07.270Z,3.00
2018-05-09T19:57:34.882Z,3.33
2018-05-09T20:00:02.544Z,3.37
2018-05-09T20:02:30.203Z,3.10
2018-05-09T20:04:58.815Z,3.10
2018-05-09T20:07:26.476Z,3.20
2018-05-09T20:09:54.131Z,2.87
2018-05-09T20:12:21.836Z,2.97
2018-05-09T20:14:49.479Z,3.10
2018-05-09T20:17:17.104Z,3.10
2018-05-09T20:19:45.478Z,3.20
2018-05-09T20:22:13.146Z,3.27
2018-05-09T20:24:40.841Z,3.07
2018-05-09T20:27:08.540Z,3.00
2018-05-09T20:29:36.208Z,3.27
2018-05-09T20:32:16.070Z,2.97
2018-05-09T20:34:44.701Z,3.40
2018-05-09T20:37:13.688Z,3.13
2018-05-09T20:39:41.319Z,3.30
2018-05-09T20:42:09.269Z,3.30
2018-05-09T20:44:36.861Z,3.50
2018-05-09T20:47:04.506Z,3.50
2018-05-09T20:49:32.109Z,3.47
2018-05-09T20:52:00.588Z,3.60
2018-05-09T20:54:28.246Z,3.93
2018-05-09T20:56:56.827Z,3.93
2018-05-09T20:59:24.571Z,4.10
2018-05-09T21:01:52.301Z,4.40
2018-05-09T21:04:19.999Z,4.07
2018-05-09T21:06:55.442Z,4.03
2018-05-09T21:09:24.061Z,3.77
2018-05-09T21:12:03.582Z,4.07
2018-05-09T21:14:32.102Z,4.03
2018-05-09T21:16:59.842Z,4.27
2018-05-09T21:19:28.293Z,4.40
2018-05-09T21:21:56.949Z,4.60
2018-05-09T21:24:24.757Z,4.43
2018-05-09T21:26:52.368Z,4.37
2018-05-09T21:29:20.023Z,4.20
2018-05-09T21:31:47.633Z,4.10
2018-05-09T21:34:15.282Z,4.40
2018-05-09T21:36:42.938Z,4.20
2018-05-09T21:39:12.190Z,4.67
2018-05-09T21:41:40.449Z,4.20
2018-05-09T21:44:08.062Z,4.33
2018-05-09T21:46:35.757Z,4.53
2018-05-09T21:49:03.385Z,4.60
2018-05-09T21:51:31.033Z,5.00
2018-05-09T21:53:58.660Z,4.53
2018-05-09T21:56:26.295Z,4.30
2018-05-09T21:58:54.712Z,4.80
2018-05-09T22:01:23.093Z,4.73
2018-05-09T22:03:51.514Z,4.90
2018-05-09T22:06:20.161Z,4.67
2018-05-09T22:08:47.798Z,4.83
2018-05-09T22:11:15.423Z,4.50
2018-05-09T22:13:43.913Z,4.63
2018-05-09T22:16:11.609Z,4.67
2018-05-09T22:18:39.211Z,4.70
2018-05-09T22:21:06.847Z,4.97
2018-05-09T22:32:40.137Z,5.40
2018-05-09T22:35:08.553Z,5.43
2018-05-09T22:37:36.975Z,5.43
2018-05-09T22:40:04.721Z,5.20
2018-05-09T22:42:32.362Z,5.13
2018-05-09T22:45:00.019Z,5.27
2018-05-09T22:47:28.454Z,5.03
2018-05-09T22:49:56.056Z,5.27
2018-05-09T22:52:23.861Z,5.30
2018-05-09T22:54:51.505Z,5.40
2018-05-09T22:57:19.906Z,5.30
2018-05-09T22:59:48.310Z,5.87
2018-05-09T23:02:15.938Z,4.87
2018-05-09T23:04:43.594Z,5.87
2018-05-09T23:07:12.053Z,5.73
2018-05-09T23:09:39.713Z,5.60
2018-05-09T23:12:08.114Z,5.13
2018-05-09T23:14:35.754Z,5.23
2018-05-09T23:17:03.408Z,5.40
2018-05-09T23:19:31.788Z,5.20
2018-05-09T23:21:59.426Z,6.00
2018-05-09T23:24:27.044Z,5.53
2018-05-09T23:26:54.668Z,6.00
2018-05-09T23:29:23.042Z,5.67
2018-05-09T23:31:50.678Z,5.50
2018-05-09T23:34:18.302Z,5.67
2018-05-09T23:36:45.983Z,5.50
2018-05-09T23:39:13.613Z,5.73
2018-05-09T23:41:41.985Z,5.70
2018-05-09T23:44:09.662Z,5.90
2018-05-09T23:46:37.627Z,6.83
2018-05-09T23:52:11.423Z,5.60
2018-05-09T23:54:39.055Z,5.97
2018-05-09T23:57:06.701Z,6.20
2018-05-09T23:59:35.154Z,5.63
